createdAt,value
2022-12-14T00:01:49.224Z,165.80
2022-12-14T00:04:51.347Z,178.20
2022-12-14T00:07:52.999Z,184.70
2022-12-14T00:10:54.612Z,170.20
2022-12-14T00:13:58.744Z,172.50
2022-12-14T00:17:00.510Z,155.60
2022-12-14T00:20:02.279Z,167.70
2022-12-14T00:23:04.597Z,160.60
2022-12-14T00:26:17.723Z,161.30
2022-12-14T00:29:19.762Z,160.70
2022-12-14T00:32:21.491Z,152.30
2022-12-14T00:35:23.886Z,172.60
2022-12-14T00:38:26.278Z,158.60
2022-12-14T00:41:28.243Z,174.50
2022-12-14T00:44:29.998Z,165.50
2022-12-14T00:50:41.142Z,161.20
2022-12-14T00:53:45.046Z,139.60
2022-12-14T00:56:46.772Z,123.80
2022-12-14T01:02:50.625Z,123.90
2022-12-14T01:08:55.307Z,118.30
2022-12-14T01:11:57.230Z,141.00
2022-12-14T01:14:58.954Z,120.00
2022-12-14T01:18:00.687Z,133.70
2022-12-14T01:24:11.724Z,116.30
2022-12-14T01:30:16.874Z,99.30
2022-12-14T01:33:18.758Z,90.10
2022-12-14T01:36:22.827Z,113.50
2022-12-14T01:39:24.475Z,124.70
2022-12-14T01:42:26.090Z,120.30
2022-12-14T01:45:28.185Z,115.20
2022-12-14T01:48:29.871Z,116.20
2022-12-14T01:51:32.973Z,125.40
2022-12-14T01:54:38.427Z,116.90
2022-12-14T01:57:50.291Z,120.80
2022-12-14T02:00:57.466Z,126.00
2022-12-14T02:03:59.951Z,122.60
2022-12-14T02:07:03.192Z,116.10
2022-12-14T02:10:06.775Z,104.50
2022-12-14T02:13:28.040Z,118.20
2022-12-14T02:16:31.000Z,129.80
2022-12-14T02:19:33.149Z,125.60
2022-12-14T02:22:40.734Z,120.20
2022-12-14T02:26:20.952Z,140.30
2022-12-14T02:29:44.604Z,133.50
2022-12-14T02:32:52.244Z,141.20
2022-12-14T02:36:01.756Z,147.00
2022-12-14T02:39:12.023Z,158.00
2022-12-14T02:42:15.306Z,148.00
2022-12-14T02:45:31.250Z,132.20
2022-12-14T02:48:41.051Z,129.40
2022-12-14T02:51:57.373Z,129.40
2022-12-14T02:55:05.939Z,141.90
2022-12-14T02:58:14.517Z,114.60
2022-12-14T03:01:20.820Z,128.30
2022-12-14T03:04:24.053Z,126.60
2022-12-14T03:07:32.688Z,124.30
2022-12-14T03:11:04.361Z,119.10
2022-12-14T03:14:10.827Z,129.90
2022-12-14T03:17:19.787Z,138.10
2022-12-14T03:20:25.827Z,136.10
2022-12-14T03:23:33.190Z,144.70
2022-12-14T03:26:41.687Z,132.20
2022-12-14T03:29:50.592Z,152.00
2022-12-14T03:32:54.314Z,146.20
2022-12-14T03:36:00.674Z,153.00
2022-12-14T03:39:04.865Z,145.00
2022-12-14T03:42:12.040Z,150.30
2022-12-14T03:46:02.687Z,150.90
2022-12-14T03:49:21.653Z,146.50
2022-12-14T03:52:30.055Z,153.90
2022-12-14T03:55:31.593Z,143.80
2022-12-14T03:58:57.298Z,148.20
2022-12-14T04:02:06.167Z,153.10
2022-12-14T04:05:20.148Z,156.10
2022-12-14T04:08:29.016Z,163.00
2022-12-14T04:11:54.279Z,163.50
2022-12-14T04:15:22.485Z,159.90
2022-12-14T04:18:57.456Z,161.90
2022-12-14T04:22:14.700Z,163.00
2022-12-14T04:25:40.020Z,159.60
2022-12-14T04:29:06.626Z,152.90
2022-12-14T04:32:14.105Z,148.70
2022-12-14T04:35:36.000Z,143.30
2022-12-14T04:38:38.324Z,151.40
2022-12-14T04:41:42.533Z,143.20
2022-12-14T04:44:48.779Z,134.40
2022-12-14T04:48:01.987Z,142.60
2022-12-14T04:51:18.427Z,141.50
2022-12-14T04:54:49.011Z,153.80
2022-12-14T04:57:58.457Z,154.80
2022-12-14T05:01:13.652Z,118.30
2022-12-14T05:04:28.903Z,132.20
2022-12-14T05:07:40.176Z,135.80
2022-12-14T05:11:23.188Z,139.80
2022-12-14T05:14:36.991Z,154.40
2022-12-14T05:17:40.231Z,163.70
2022-12-14T05:20:41.962Z,150.00
2022-12-14T05:23:43.646Z,136.50
2022-12-14T05:29:47.018Z,138.90
2022-12-14T05:35:50.255Z,172.90
2022-12-14T05:38:52.013Z,147.60
2022-12-14T05:44:55.473Z,140.20
2022-12-14T05:47:57.112Z,156.70
2022-12-14T05:54:10.596Z,120.20
2022-12-14T06:00:15.591Z,141.40
2022-12-14T06:03:17.533Z,148.00
2022-12-14T06:06:19.752Z,151.40
2022-12-14T06:09:21.588Z,160.10
2022-12-14T06:15:27.229Z,142.20
2022-12-14T06:18:32.413Z,155.80
2022-12-14T06:21:36.443Z,152.90
2022-12-14T06:24:38.308Z,192.30
2022-12-14T06:30:41.598Z,142.00
2022-12-14T06:33:44.014Z,153.00
2022-12-14T06:36:46.999Z,171.40
2022-12-14T06:39:54.140Z,155.70
2022-12-14T06:42:56.348Z,169.90
2022-12-14T06:48:59.913Z,175.80
2022-12-14T06:55:04.145Z,191.70
2022-12-14T06:58:05.824Z,205.60
2022-12-14T07:01:09.628Z,215.90
2022-12-14T07:04:11.758Z,205.40
2022-12-14T07:07:13.502Z,203.30
2022-12-14T07:10:15.471Z,162.70
2022-12-14T07:13:17.223Z,164.80
2022-12-14T07:19:22.037Z,137.00
2022-12-14T07:25:25.460Z,155.30
2022-12-14T07:28:28.094Z,156.70
2022-12-14T07:31:30.194Z,150.20
2022-12-14T07:34:32.035Z,165.70
2022-12-14T07:40:35.755Z,138.70
2022-12-14T07:43:39.238Z,163.40
2022-12-14T07:46:41.379Z,183.10
2022-12-14T07:49:43.184Z,195.60
2022-12-14T07:55:46.974Z,177.40
2022-12-14T07:58:49.438Z,175.20
2022-12-14T08:01:52.561Z,160.90
2022-12-14T08:04:54.777Z,162.30
2022-12-14T08:07:56.503Z,164.90
2022-12-14T08:10:58.288Z,147.60
2022-12-14T08:17:02.851Z,153.10
2022-12-14T08:23:06.545Z,170.30
2022-12-14T08:26:08.533Z,161.60
2022-12-14T08:29:12.789Z,161.30
2022-12-14T08:32:14.718Z,169.20
2022-12-14T08:35:16.964Z,185.70
2022-12-14T08:38:18.845Z,174.60
2022-12-14T08:44:22.845Z,157.20
2022-12-14T08:47:24.559Z,162.10
2022-12-14T08:53:28.874Z,151.10
2022-12-14T08:56:31.303Z,149.00
2022-12-14T09:00:00.153Z,139.60
2022-12-14T09:02:54.896Z,153.60
2022-12-14T09:05:56.973Z,142.80
2022-12-14T09:08:58.613Z,147.40
2022-12-14T09:12:03.478Z,147.80
2022-12-14T09:15:06.818Z,144.00
2022-12-14T09:18:08.880Z,153.90
2022-12-14T09:21:11.077Z,161.20
2022-12-14T09:24:12.915Z,144.00
2022-12-14T09:27:14.646Z,144.20
2022-12-14T09:30:19.332Z,135.40
2022-12-14T09:33:26.517Z,140.10
2022-12-14T09:36:29.187Z,136.60
2022-12-14T09:39:36.283Z,144.00
2022-12-14T09:42:54.170Z,146.10
2022-12-14T09:46:00.250Z,144.70
2022-12-14T09:49:02.762Z,136.00
2022-12-14T09:52:06.699Z,137.10
2022-12-14T09:55:17.174Z,137.00
2022-12-14T09:58:32.803Z,135.30
2022-12-14T10:05:25.351Z,136.40
2022-12-14T10:08:40.691Z,127.50
2022-12-14T10:12:12.648Z,130.00
2022-12-14T10:18:57.725Z,137.40
2022-12-14T10:21:55.454Z,138.70
2022-12-14T10:25:23.700Z,141.00
2022-12-14T10:28:45.943Z,138.40
2022-12-14T10:32:04.584Z,137.30
2022-12-14T10:35:20.401Z,116.10
2022-12-14T10:38:28.304Z,111.40
2022-12-14T10:41:36.201Z,122.30
2022-12-14T10:45:38.960Z,116.80
2022-12-14T10:48:48.228Z,134.20
2022-12-14T10:52:01.277Z,177.60
2022-12-14T10:55:09.373Z,172.40
2022-12-14T10:58:11.615Z,117.20
2022-12-14T11:01:15.834Z,127.70
2022-12-14T11:04:33.375Z,129.60
2022-12-14T11:07:35.174Z,131.20
2022-12-14T11:10:39.565Z,127.30
2022-12-14T11:13:48.755Z,145.70
2022-12-14T11:16:50.594Z,154.10
2022-12-14T11:20:09.917Z,142.30
2022-12-14T11:23:20.982Z,128.50
2022-12-14T11:26:29.030Z,132.40
2022-12-14T11:29:34.284Z,136.30
2022-12-14T11:32:36.078Z,123.00
2022-12-14T11:35:37.692Z,130.70
2022-12-14T11:38:39.488Z,121.20
2022-12-14T11:41:47.533Z,139.70
2022-12-14T11:44:50.615Z,134.90
2022-12-14T11:48:21.261Z,137.60
2022-12-14T11:51:23.123Z,138.60
2022-12-14T11:54:24.946Z,140.50
2022-12-14T11:57:46.830Z,130.90
2022-12-14T12:00:52.826Z,138.10
2022-12-14T12:03:58.867Z,140.60
2022-12-14T12:07:15.054Z,137.10
2022-12-14T12:10:34.170Z,138.90
2022-12-14T12:13:38.630Z,142.90
2022-12-14T12:16:42.370Z,145.70
2022-12-14T12:19:44.120Z,129.50
2022-12-14T12:22:48.323Z,137.90
2022-12-14T12:25:51.589Z,177.60
2022-12-14T12:28:57.431Z,142.10
2022-12-14T12:32:21.234Z,128.40
2022-12-14T12:35:41.800Z,126.90
2022-12-14T12:38:49.784Z,122.80
2022-12-14T12:42:05.698Z,116.20
2022-12-14T12:45:19.353Z,135.60
2022-12-14T12:48:38.899Z,139.00
2022-12-14T12:51:54.394Z,132.10
2022-12-14T12:55:10.380Z,137.60
2022-12-14T12:58:24.969Z,140.00
2022-12-14T13:01:34.723Z,141.30
2022-12-14T13:04:40.500Z,144.50
2022-12-14T13:07:49.243Z,138.60
2022-12-14T13:14:29.303Z,151.60
2022-12-14T13:17:41.977Z,148.50
2022-12-14T13:20:44.235Z,145.20
2022-12-14T13:23:51.597Z,152.00
2022-12-14T13:30:10.087Z,148.30
2022-12-14T13:34:09.886Z,151.10
2022-12-14T13:37:37.150Z,154.70
2022-12-14T13:40:40.430Z,163.00
2022-12-14T13:44:04.434Z,140.10
2022-12-14T13:47:14.001Z,150.70
2022-12-14T13:50:44.506Z,161.60
2022-12-14T13:53:59.327Z,163.50
2022-12-14T13:57:06.822Z,153.20
2022-12-14T14:00:47.540Z,159.70
2022-12-14T14:03:54.283Z,167.20
2022-12-14T14:07:22.394Z,167.20
2022-12-14T14:10:42.322Z,172.40
2022-12-14T14:13:44.120Z,185.20
2022-12-14T14:16:56.501Z,197.50
2022-12-14T14:19:58.483Z,174.40
2022-12-14T14:26:26.244Z,147.50
2022-12-14T14:29:29.437Z,139.60
2022-12-14T14:32:38.513Z,149.50
2022-12-14T14:35:40.268Z,157.10
2022-12-14T14:38:42.690Z,168.50
2022-12-14T14:41:45.062Z,138.00
2022-12-14T14:44:52.865Z,159.70
2022-12-14T14:47:56.206Z,156.10
2022-12-14T14:51:20.477Z,182.50
2022-12-14T14:55:15.929Z,166.50
2022-12-14T14:57:59.620Z,178.70
2022-12-14T15:01:10.998Z,188.90
2022-12-14T15:04:23.405Z,181.20
2022-12-14T15:07:29.877Z,178.20
2022-12-14T15:10:37.614Z,179.60
2022-12-14T15:13:46.304Z,190.70
2022-12-14T15:16:51.216Z,195.10
2022-12-14T15:19:55.040Z,359.60
2022-12-14T15:22:57.246Z,310.30
2022-12-14T15:26:01.107Z,186.00
2022-12-14T15:29:04.782Z,181.10
2022-12-14T15:32:06.569Z,204.60
2022-12-14T15:35:15.184Z,215.00
2022-12-14T15:38:20.479Z,201.50
2022-12-14T15:41:24.062Z,190.30
2022-12-14T15:44:25.900Z,181.50
2022-12-14T15:47:29.853Z,183.50
2022-12-14T15:50:32.801Z,162.00
2022-12-14T15:53:43.426Z,140.60
2022-12-14T15:56:55.638Z,130.90
2022-12-14T15:59:58.200Z,127.20
2022-12-14T16:03:00.468Z,115.80
2022-12-14T16:06:03.412Z,95.10
2022-12-14T16:09:24.034Z,88.80
2022-12-14T16:12:45.139Z,89.60
2022-12-14T16:15:49.493Z,89.10
2022-12-14T16:18:51.839Z,77.90
2022-12-14T16:22:24.602Z,61.30
2022-12-14T16:25:26.516Z,62.50
2022-12-14T16:28:31.323Z,52.40
2022-12-14T16:31:34.090Z,54.80
2022-12-14T16:34:35.781Z,61.80
2022-12-14T16:37:37.606Z,67.00
2022-12-14T16:43:42.031Z,65.80
2022-12-14T16:47:03.561Z,76.60
2022-12-14T16:50:47.606Z,79.40
2022-12-14T16:53:50.049Z,110.10
2022-12-14T16:56:57.114Z,81.60
2022-12-14T17:00:04.206Z,74.60
2022-12-14T17:03:09.018Z,61.90
2022-12-14T17:06:25.221Z,69.80
2022-12-14T17:09:29.854Z,93.30
2022-12-14T17:12:31.631Z,80.00
2022-12-14T17:21:39.910Z,66.70
2022-12-14T17:27:43.627Z,55.10
2022-12-14T17:30:46.539Z,59.80
2022-12-14T17:33:49.436Z,59.10
2022-12-14T17:36:51.153Z,67.80
2022-12-14T17:42:57.075Z,50.70
2022-12-14T17:46:01.210Z,68.80
2022-12-14T17:49:06.777Z,82.40
2022-12-14T17:52:18.853Z,84.00
2022-12-14T17:55:28.972Z,80.90
2022-12-14T17:58:30.802Z,82.50
2022-12-14T18:01:32.687Z,84.20
2022-12-14T18:07:35.996Z,56.00
2022-12-14T18:10:38.562Z,56.20
2022-12-14T18:13:40.582Z,43.70
2022-12-14T18:16:42.419Z,56.30
2022-12-14T18:19:45.054Z,66.60
2022-12-14T18:22:50.469Z,60.30
2022-12-14T18:25:54.815Z,70.00
2022-12-14T18:28:57.901Z,62.10
2022-12-14T18:32:00.070Z,49.10
2022-12-14T18:35:01.740Z,44.20
2022-12-14T18:38:03.619Z,42.70
2022-12-14T18:44:07.051Z,45.40
2022-12-14T18:47:33.510Z,48.90
2022-12-14T18:50:30.870Z,44.00
2022-12-14T18:56:35.031Z,71.70
2022-12-14T18:59:42.250Z,74.00
2022-12-14T19:02:46.883Z,65.20
2022-12-14T19:05:51.979Z,55.40
2022-12-14T19:08:53.831Z,48.40
2022-12-14T19:11:55.600Z,46.50
2022-12-14T19:14:58.503Z,43.90
2022-12-14T19:18:01.172Z,45.90
2022-12-14T19:21:03.410Z,44.70
2022-12-14T19:24:08.644Z,46.50
2022-12-14T19:27:10.929Z,44.70
2022-12-14T19:33:25.709Z,47.70
2022-12-14T19:36:27.499Z,44.80
2022-12-14T19:39:29.602Z,44.20
2022-12-14T19:45:35.053Z,57.10
2022-12-14T19:48:37.902Z,54.30
2022-12-14T19:51:39.565Z,92.10
2022-12-14T19:54:41.350Z,81.00
2022-12-14T19:57:43.073Z,85.80
2022-12-14T20:03:46.664Z,67.90
2022-12-14T20:06:48.537Z,99.10
2022-12-14T20:09:50.272Z,135.70
2022-12-14T20:12:51.953Z,91.50
2022-12-14T20:15:58.291Z,87.70
2022-12-14T20:19:00.084Z,76.00
2022-12-14T20:22:01.853Z,79.30
2022-12-14T20:25:04.092Z,62.00
2022-12-14T20:31:10.146Z,44.90
2022-12-14T20:34:11.868Z,48.40
2022-12-14T20:37:13.684Z,43.50
2022-12-14T20:43:17.609Z,48.10
2022-12-14T20:46:33.399Z,59.30
2022-12-14T20:49:35.139Z,53.80
2022-12-14T20:52:36.767Z,50.50
2022-12-14T20:55:38.482Z,44.70
2022-12-14T20:58:42.020Z,53.60
2022-12-14T21:01:44.032Z,54.70
2022-12-14T21:04:46.563Z,60.40
2022-12-14T21:07:49.187Z,50.40
2022-12-14T21:10:50.814Z,46.70
2022-12-14T21:13:52.584Z,48.60
2022-12-14T21:16:54.911Z,43.70
2022-12-14T21:19:58.063Z,47.20
2022-12-14T21:22:59.957Z,48.10
2022-12-14T21:26:05.134Z,48.50
2022-12-14T21:29:08.909Z,61.90
2022-12-14T21:32:10.927Z,72.90
2022-12-14T21:38:19.578Z,99.00
2022-12-14T21:41:39.964Z,56.20
2022-12-14T21:44:44.209Z,55.70
2022-12-14T21:47:45.905Z,53.10
2022-12-14T21:50:47.548Z,53.30
2022-12-14T21:54:00.856Z,64.30
2022-12-14T21:57:22.242Z,82.00
2022-12-14T22:00:23.926Z,78.10
2022-12-14T22:03:25.616Z,65.90
2022-12-14T22:06:27.414Z,61.00
2022-12-14T22:09:29.433Z,59.80
2022-12-14T22:12:31.213Z,74.00
2022-12-14T22:15:32.799Z,110.60
2022-12-14T22:18:34.753Z,122.20
2022-12-14T22:21:38.650Z,123.30
2022-12-14T22:24:41.029Z,78.80
2022-12-14T22:27:42.707Z,77.70
2022-12-14T22:30:44.536Z,70.70
2022-12-14T22:33:49.831Z,114.10
2022-12-14T22:36:52.805Z,72.30
2022-12-14T22:39:54.418Z,69.30
2022-12-14T22:42:56.153Z,85.30
2022-12-14T22:46:03.078Z,87.40
2022-12-14T22:49:05.018Z,84.20
2022-12-14T22:52:06.640Z,67.80
2022-12-14T22:58:11.232Z,62.10
2022-12-14T23:01:14.150Z,71.10
2022-12-14T23:04:15.894Z,64.20
2022-12-14T23:07:18.048Z,64.10
2022-12-14T23:10:38.854Z,63.50
2022-12-14T23:13:59.330Z,68.20
2022-12-14T23:17:21.142Z,72.20
2022-12-14T23:20:41.488Z,72.20
2022-12-14T23:24:03.974Z,73.00
2022-12-14T23:27:24.426Z,70.90
2022-12-14T23:30:44.987Z,77.20
2022-12-14T23:34:05.934Z,76.50
2022-12-14T23:37:26.251Z,74.00
2022-12-14T23:40:46.865Z,77.70
2022-12-14T23:44:07.224Z,74.40
2022-12-14T23:47:27.899Z,69.70
2022-12-14T23:50:48.320Z,73.80
2022-12-14T23:54:08.836Z,87.30
2022-12-14T23:57:29.393Z,79.90
